Time;durP1;ratioP1;P1;durP2;ratioP2;P2;SDS_P1;SDS_P2;PMS_P1;PMS_P2;Temp;Humidity;BMP_temperature;BMP_pressure;BME280_temperature;BME280_humidity;BME280_pressure;Samples;Min_cycle;Max_cycle;Signal;HPM_P1;HPM_P2
2022/12/10 00:01:12;;;;;;;0.93;0.93;;;1.90;1.00;;;;;;6087487;23;20412;-79
2022/12/10 00:03:40;;;;;;;0.50;0.20;;;1.90;1.00;;;;;;6084888;23;20428;-80
2022/12/10 00:06:13;;;;;;;0.50;0.30;;;1.90;1.00;;;;;;6078189;23;20419;-80
2022/12/10 00:08:41;;;;;;;1.80;1.70;;;1.90;1.00;;;;;;6075174;23;20435;-79
2022/12/10 00:11:13;;;;;;;0.50;0.10;;;1.90;1.00;;;;;;6080319;23;20418;-80
2022/12/10 00:13:42;;;;;;;3.07;2.60;;;1.90;1.00;;;;;;6080386;23;20431;-80
2022/12/10 00:16:12;;;;;;;1.73;1.60;;;1.80;1.00;;;;;;6078342;23;20436;-80
2022/12/10 00:18:41;;;;;;;0.50;0.10;;;1.80;1.00;;;;;;6077376;23;20443;-78
2022/12/10 00:21:10;;;;;;;0.50;0.10;;;1.80;1.00;;;;;;6077148;23;20927;-80
2022/12/10 00:23:39;;;;;;;0.80;0.30;;;1.80;1.00;;;;;;6079960;23;20412;-78
2022/12/10 00:26:11;;;;;;;2.60;2.50;;;1.80;1.00;;;;;;6078413;23;20424;-80
2022/12/10 00:28:40;;;;;;;1.27;1.17;;;1.80;1.00;;;;;;6077601;23;20468;-78
2022/12/10 00:31:09;;;;;;;0.50;0.20;;;1.80;1.00;;;;;;6091299;23;20423;-79
2022/12/10 00:33:38;;;;;;;1.00;0.70;;;1.80;1.00;;;;;;6080124;23;20435;-80
2022/12/10 00:36:09;;;;;;;3.00;1.47;;;1.70;1.00;;;;;;6077760;23;20414;-80
2022/12/10 00:38:37;;;;;;;1.50;1.40;;;1.80;1.00;;;;;;6083317;23;20478;-79
2022/12/10 00:41:05;;;;;;;0.93;0.73;;;1.80;1.00;;;;;;6085373;23;20423;-78
2022/12/10 00:43:35;;;;;;;1.17;1.07;;;1.70;1.00;;;;;;6085658;23;20404;-79
2022/12/10 00:46:03;;;;;;;2.50;0.97;;;1.70;1.00;;;;;;6077724;23;20404;-80
2022/12/10 00:48:31;;;;;;;0.57;0.37;;;1.80;1.00;;;;;;6077628;23;20407;-79
2022/12/10 00:51:01;;;;;;;0.50;0.10;;;1.80;1.00;;;;;;6076860;23;20409;-80
2022/12/10 00:53:31;;;;;;;2.73;0.40;;;1.80;1.00;;;;;;6074749;23;20403;-79
2022/12/10 00:56:00;;;;;;;0.50;0.10;;;1.80;1.00;;;;;;6077198;23;20538;-79
2022/12/10 00:58:29;;;;;;;4.50;1.37;;;1.80;1.00;;;;;;6082020;23;20439;-79
2022/12/10 05:02:50;;;;;;;0.50;0.10;;;;;;;;;;6073330;23;20447;-77
2022/12/10 05:05:18;;;;;;;0.50;0.20;;;1.30;1.00;;;;;;6075188;23;20864;-76
2022/12/10 05:07:46;;;;;;;0.50;0.10;;;1.30;1.00;;;;;;6074063;23;20415;-77
2022/12/10 05:10:14;;;;;;;0.50;0.10;;;1.30;1.00;;;;;;6074006;23;20479;-77
2022/12/10 05:12:42;;;;;;;0.50;0.10;;;1.30;1.00;;;;;;6072622;23;20986;-76
2022/12/10 05:15:11;;;;;;;0.50;0.10;;;1.30;1.00;;;;;;6075480;23;20479;-79
2022/12/10 05:17:38;;;;;;;0.50;0.10;;;1.30;1.00;;;;;;6070832;23;20399;-77
2022/12/10 05:20:09;;;;;;;0.50;0.10;;;1.30;1.00;;;;;;6070371;23;20455;-78
2022/12/10 05:25:23;;;;;;;0.50;0.10;;;1.40;1.00;;;;;;6070667;23;20400;-77
2022/12/10 05:27:51;;;;;;;0.50;0.10;;;1.40;1.00;;;;;;6069757;23;20896;-77
2022/12/10 05:30:19;;;;;;;0.50;0.10;;;1.40;1.00;;;;;;6070279;23;20396;-76
2022/12/10 05:32:47;;;;;;;0.50;0.10;;;1.40;1.00;;;;;;6069265;23;20432;-76
2022/12/10 05:35:16;;;;;;;2.30;2.20;;;1.40;1.00;;;;;;6070438;23;20426;-76
2022/12/10 05:37:44;;;;;;;0.50;0.10;;;1.40;1.00;;;;;;6070332;23;20411;-77
2022/12/10 05:40:13;;;;;;;0.50;0.10;;;1.40;1.00;;;;;;6071544;23;20487;-76
2022/12/10 05:42:41;;;;;;;0.50;0.10;;;1.40;1.00;;;;;;6072748;23;20447;-77
2022/12/10 05:45:09;;;;;;;0.50;0.10;;;1.40;1.00;;;;;;6073739;23;20412;-78
2022/12/10 05:47:37;;;;;;;0.50;0.10;;;1.40;1.00;;;;;;6074307;23;20491;-78
2022/12/10 05:50:06;;;;;;;0.50;0.10;;;1.40;1.00;;;;;;6072726;23;20404;-77
2022/12/10 05:52:36;;;;;;;0.50;0.10;;;1.40;1.00;;;;;;6073627;23;20436;-76
2022/12/10 05:55:04;;;;;;;0.50;0.10;;;1.40;1.00;;;;;;6077616;23;20479;-76
2022/12/10 05:57:32;;;;;;;0.50;0.10;;;1.40;1.00;;;;;;6074979;23;20927;-76
2022/12/10 06:00:00;;;;;;;0.50;0.10;;;1.40;1.00;;;;;;6074263;23;20439;-78
2022/12/10 06:02:28;;;;;;;0.50;0.10;;;1.40;1.00;;;;;;6070129;23;20439;-77
2022/12/10 06:04:55;;;;;;;0.50;0.10;;;1.40;1.00;;;;;;6070425;23;20999;-77
2022/12/10 06:07:24;;;;;;;0.50;0.30;;;1.40;1.00;;;;;;6069458;23;20460;-78
2022/12/10 06:09:53;;;;;;;0.50;0.10;;;1.50;1.00;;;;;;6070031;23;20419;-77
2022/12/10 06:12:21;;;;;;;28.90;9.47;;;1.50;1.00;;;;;;6070524;23;20428;-77
2022/12/10 06:14:49;;;;;;;0.50;0.10;;;1.50;1.00;;;;;;6071635;23;20412;-77
2022/12/10 06:17:17;;;;;;;0.50;0.10;;;1.50;1.00;;;;;;6073927;23;20454;-77
2022/12/10 06:19:45;;;;;;;0.50;0.10;;;1.50;1.00;;;;;;6077770;23;20466;-77
2022/12/10 06:22:13;;;;;;;0.50;0.10;;;1.60;1.00;;;;;;6075807;23;20423;-77
2022/12/10 06:24:40;;;;;;;0.50;0.10;;;1.60;1.00;;;;;;6076027;23;20920;-78
2022/12/10 06:27:10;;;;;;;0.50;0.10;;;1.60;1.00;;;;;;6076303;23;20412;-77
2022/12/10 06:29:37;;;;;;;0.50;0.10;;;1.60;1.00;;;;;;6076427;23;20416;-77
2022/12/10 06:32:06;;;;;;;0.50;0.10;;;;;;;;;;6075865;23;20440;-78
2022/12/10 06:34:33;;;;;;;0.50;0.10;;;1.70;1.00;;;;;;6080390;23;20472;-77
2022/12/10 06:37:08;;;;;;;0.50;0.10;;;1.70;1.00;;;;;;6078728;23;20392;-77
2022/12/10 06:39:35;;;;;;;0.50;0.10;;;1.70;1.00;;;;;;6076909;23;20447;-77
2022/12/10 06:42:05;;;;;;;0.50;0.10;;;2.70;1.00;;;;;;6084134;23;20440;-77
2022/12/10 06:44:34;;;;;;;0.50;0.20;;;1.70;1.00;;;;;;6086540;23;20396;-77
2022/12/10 06:47:02;;;;;;;0.50;0.10;;;1.80;1.00;;;;;;6081984;23;20444;-77
2022/12/10 06:49:30;;;;;;;0.50;0.10;;;1.80;1.00;;;;;;6077079;23;20498;-78
2022/12/10 06:51:58;;;;;;;0.50;0.10;;;1.90;1.00;;;;;;6074066;23;20420;-78
2022/12/10 06:54:26;;;;;;;0.50;0.20;;;1.90;1.00;;;;;;6077580;23;20458;-77
2022/12/10 06:56:54;;;;;;;1.07;1.07;;;1.90;1.00;;;;;;6075689;23;20407;-77
2022/12/10 06:59:22;;;;;;;0.50;0.10;;;1.90;1.00;;;;;;6073353;23;20444;-77
2022/12/10 07:01:53;;;;;;;0.50;0.10;;;2.00;1.00;;;;;;6073297;23;20554;-78
2022/12/10 07:04:21;;;;;;;0.50;0.10;;;2.00;1.00;;;;;;6073843;23;20416;-77
2022/12/10 07:06:49;;;;;;;0.50;0.13;;;2.00;1.00;;;;;;6072408;23;20511;-77
2022/12/10 07:09:17;;;;;;;0.60;0.40;;;2.00;1.00;;;;;;6072600;23;20415;-77
2022/12/10 07:11:45;;;;;;;0.50;0.20;;;2.00;1.00;;;;;;6071476;23;21038;-78
2022/12/10 07:14:15;;;;;;;2.93;1.07;;;2.00;1.00;;;;;;6070064;23;20920;-78
2022/12/10 07:16:43;;;;;;;0.50;0.10;;;2.00;1.00;;;;;;6071192;23;20412;-78
2022/12/10 07:19:13;;;;;;;1.17;1.17;;;2.00;1.00;;;;;;6070639;23;20795;-77
2022/12/10 07:21:42;;;;;;;0.50;0.10;;;2.00;1.00;;;;;;6070752;23;20518;-76
2022/12/10 07:24:12;;;;;;;0.73;0.37;;;1.90;1.00;;;;;;6076516;23;20404;-76
2022/12/10 07:26:43;;;;;;;0.70;0.40;;;2.00;1.00;;;;;;6082552;23;20407;-77
2022/12/10 07:29:15;;;;;;;0.50;0.20;;;2.00;1.00;;;;;;6080369;23;20985;-77
2022/12/10 07:31:43;;;;;;;0.50;0.10;;;2.00;1.00;;;;;;6077576;23;20432;-77
2022/12/10 07:34:15;;;;;;;1.07;0.93;;;2.00;1.00;;;;;;6075562;23;20412;-77
2022/12/10 07:36:43;;;;;;;0.50;0.10;;;2.00;1.00;;;;;;6075302;23;20442;-78
2022/12/10 07:39:16;;;;;;;0.50;0.10;;;2.00;1.00;;;;;;6076742;23;20408;-77
2022/12/10 07:41:45;;;;;;;0.50;0.10;;;2.00;1.00;;;;;;6075899;23;20990;-78
2022/12/10 07:44:18;;;;;;;0.50;0.10;;;2.00;1.00;;;;;;6076295;23;20422;-77
2022/12/10 07:46:46;;;;;;;1.57;0.83;;;2.00;1.00;;;;;;6076624;23;20412;-76
2022/12/10 07:49:15;;;;;;;0.60;0.30;;;2.10;1.00;;;;;;6080344;23;20438;-77
2022/12/10 07:51:45;;;;;;;1.27;1.17;;;2.10;1.00;;;;;;6080979;23;20493;-76
2022/12/10 07:54:16;;;;;;;1.03;0.93;;;2.10;1.00;;;;;;6081311;23;20391;-78
2022/12/10 07:56:48;;;;;;;0.50;0.10;;;2.10;1.00;;;;;;6080348;23;20410;-78
2022/12/10 07:59:20;;;;;;;1.70;1.60;;;2.10;1.00;;;;;;6077258;23;20435;-78
2022/12/10 08:01:49;;;;;;;0.70;0.43;;;2.10;1.00;;;;;;6081015;23;20468;-77
2022/12/10 08:04:20;;;;;;;0.50;0.10;;;2.10;1.00;;;;;;6079449;23;20482;-78
2022/12/10 08:06:48;;;;;;;0.50;0.10;;;2.20;1.00;;;;;;6070791;23;20730;-77
2022/12/10 08:09:16;;;;;;;0.90;0.60;;;2.20;1.00;;;;;;6070098;23;20812;-78
2022/12/10 08:11:51;;;;;;;0.50;0.10;;;;;;;;;;6071878;23;20416;-77
2022/12/10 08:14:19;;;;;;;0.50;0.20;;;2.30;1.00;;;;;;6072992;23;20896;-78
2022/12/10 08:16:47;;;;;;;0.50;0.10;;;;;;;;;;6073880;23;20395;-77
2022/12/10 08:19:15;;;;;;;1.03;0.73;;;2.30;1.00;;;;;;6073024;23;20455;-77
2022/12/10 08:21:51;;;;;;;0.50;0.10;;;2.40;1.00;;;;;;6072100;23;20446;-78
2022/12/10 08:24:19;;;;;;;0.50;0.10;;;2.40;1.00;;;;;;6071439;23;20861;-78
2022/12/10 08:26:46;;;;;;;0.50;0.10;;;2.40;1.00;;;;;;6073212;23;20419;-77
2022/12/10 08:29:14;;;;;;;0.60;0.50;;;2.40;1.00;;;;;;6072189;23;20889;-79
2022/12/10 08:31:42;;;;;;;0.50;0.10;;;2.50;1.00;;;;;;6071445;23;20430;-77
2022/12/10 08:34:13;;;;;;;0.50;0.10;;;2.50;1.00;;;;;;6070853;23;20797;-78
2022/12/10 08:36:42;;;;;;;0.50;0.10;;;2.50;1.00;;;;;;6071525;23;20425;-78
2022/12/10 08:39:14;;;;;;;0.70;0.10;;;2.50;1.00;;;;;;6071969;23;20449;-77
2022/12/10 08:41:44;;;;;;;0.50;0.10;;;2.60;1.00;;;;;;6072838;23;20486;-78
2022/12/10 08:44:12;;;;;;;0.50;0.10;;;;;;;;;;6086216;23;20416;-77
2022/12/10 08:46:40;;;;;;;0.80;0.67;;;2.60;1.00;;;;;;6077662;23;20403;-77
2022/12/10 08:49:08;;;;;;;0.67;0.67;;;2.70;1.00;;;;;;6073425;23;20471;-77
2022/12/10 08:51:36;;;;;;;0.50;0.27;;;2.60;1.00;;;;;;6072143;23;21106;-77
2022/12/10 08:54:04;;;;;;;0.50;0.10;;;2.60;1.00;;;;;;6071554;23;20418;-77
2022/12/10 08:56:34;;;;;;;0.50;0.10;;;2.70;1.00;;;;;;6072019;23;20422;-78
2022/12/10 08:59:02;;;;;;;0.50;0.10;;;2.70;1.00;;;;;;6072531;23;20470;-78
2022/12/10 09:01:30;;;;;;;0.60;0.50;;;2.70;1.00;;;;;;6073387;23;20448;-79
2022/12/10 09:03:58;;;;;;;0.50;0.10;;;2.70;1.00;;;;;;6071889;23;20411;-78
2022/12/10 09:06:26;;;;;;;0.80;0.80;;;2.80;1.00;;;;;;6072735;23;20406;-78
2022/12/10 09:08:54;;;;;;;0.57;0.40;;;2.80;1.00;;;;;;6072316;23;20904;-78
2022/12/10 09:11:24;;;;;;;0.50;0.10;;;2.80;1.00;;;;;;6071198;23;20784;-77
2022/12/10 09:13:54;;;;;;;0.60;0.50;;;2.80;1.00;;;;;;6068327;23;20419;-77
2022/12/10 09:16:27;;;;;;;5.13;1.80;;;2.80;1.00;;;;;;6072572;23;20795;-77
2022/12/10 09:18:55;;;;;;;0.50;0.10;;;2.80;1.00;;;;;;6086921;23;20411;-77
2022/12/10 09:21:23;;;;;;;0.87;0.83;;;2.80;1.00;;;;;;6094052;23;20491;-77
2022/12/10 09:23:51;;;;;;;1.80;1.70;;;2.80;1.00;;;;;;6075147;23;20404;-76
2022/12/10 09:26:21;;;;;;;0.50;0.17;;;2.80;1.00;;;;;;6072569;23;20787;-77
2022/12/10 09:28:49;;;;;;;2.00;1.37;;;2.80;1.00;;;;;;6074148;23;20418;-77
2022/12/10 09:31:20;;;;;;;1.03;1.03;;;2.90;1.00;;;;;;6071197;23;20442;-77
2022/12/10 09:33:51;;;;;;;0.50;0.10;;;2.90;1.00;;;;;;6078020;23;20412;-78
2022/12/10 09:36:20;;;;;;;0.50;0.10;;;2.90;1.00;;;;;;6080846;23;20472;-78
2022/12/10 09:38:49;;;;;;;0.50;0.10;;;2.90;1.00;;;;;;6080359;23;20884;-77
2022/12/10 09:41:37;;;;;;;1.80;0.93;;;2.90;1.00;;;;;;6078989;23;20928;-78
2022/12/10 09:44:13;;;;;;;0.50;0.10;;;2.90;1.00;;;;;;6078158;23;20737;-78
2022/12/10 09:46:53;;;;;;;0.50;0.30;;;3.00;1.00;;;;;;6077976;23;20895;-77
2022/12/10 09:49:31;;;;;;;0.50;0.10;;;3.00;1.00;;;;;;6079027;23;20422;-78
2022/12/10 09:52:02;;;;;;;0.50;0.10;;;3.00;1.00;;;;;;6079058;23;20435;-78
2022/12/10 09:54:33;;;;;;;0.50;0.10;;;3.00;1.00;;;;;;6074866;23;20417;-78
2022/12/10 09:57:04;;;;;;;0.50;0.10;;;3.00;1.00;;;;;;6082441;23;20406;-78
2022/12/10 09:59:38;;;;;;;0.50;0.10;;;3.00;1.00;;;;;;6078534;23;20419;-79
2022/12/10 10:02:21;;;;;;;1.67;1.30;;;3.00;1.00;;;;;;6077208;23;20455;-77
2022/12/10 10:04:51;;;;;;;0.50;0.10;;;3.00;1.00;;;;;;6079030;23;20550;-78
2022/12/10 10:07:22;;;;;;;0.50;0.30;;;3.00;1.00;;;;;;6081253;23;20414;-78
2022/12/10 10:09:52;;;;;;;0.50;0.10;;;3.00;1.00;;;;;;6084296;23;20406;-77
2022/12/10 10:12:20;;;;;;;1.80;1.70;;;3.10;1.00;;;;;;6080185;23;20428;-78
2022/12/10 10:14:48;;;;;;;1.73;1.60;;;3.10;1.00;;;;;;6076759;23;20408;-78
2022/12/10 10:17:22;;;;;;;7.13;3.57;;;3.20;1.00;;;;;;6074836;23;20423;-79
2022/12/10 10:19:56;;;;;;;0.50;0.20;;;3.20;1.00;;;;;;6078341;23;20415;-78
2022/12/10 10:22:26;;;;;;;0.50;0.10;;;3.30;1.00;;;;;;6076242;23;20458;-78
2022/12/10 10:24:54;;;;;;;1.90;1.80;;;3.30;1.00;;;;;;6076588;23;20410;-78
2022/12/10 10:27:26;;;;;;;0.50;0.10;;;3.30;1.00;;;;;;6074848;23;20420;-78
2022/12/10 10:29:56;;;;;;;0.50;0.10;;;3.30;1.00;;;;;;6077175;23;20412;-77
2022/12/10 10:32:49;;;;;;;1.00;0.83;;;3.30;1.00;;;;;;6080522;23;20487;-79
2022/12/10 10:35:27;;;;;;;0.73;0.23;;;3.30;1.00;;;;;;6081091;23;20427;-79
2022/12/10 10:37:59;;;;;;;0.60;0.30;;;3.30;1.00;;;;;;6078082;23;20480;-78
2022/12/10 10:40:29;;;;;;;0.57;0.30;;;;;;;;;;6078530;23;20486;-78
2022/12/10 10:42:59;;;;;;;0.73;0.73;;;3.30;1.00;;;;;;6078431;23;20443;-78
2022/12/10 10:45:40;;;;;;;4.00;1.90;;;3.30;1.00;;;;;;6078684;23;20483;-78
2022/12/10 10:48:16;;;;;;;0.60;0.30;;;3.30;1.00;;;;;;6077952;23;20443;-77
2022/12/10 10:50:45;;;;;;;0.50;0.10;;;3.30;1.00;;;;;;6074615;23;20442;-78
2022/12/10 10:53:25;;;;;;;2.00;1.90;;;3.30;1.00;;;;;;6075470;23;20427;-76
2022/12/10 10:55:56;;;;;;;3.27;0.70;;;3.40;1.00;;;;;;6079315;23;20885;-78
2022/12/10 10:58:25;;;;;;;0.50;0.10;;;3.40;1.00;;;;;;6081704;23;20391;-77
2022/12/10 11:00:59;;;;;;;0.50;0.10;;;3.40;1.00;;;;;;6081582;23;20471;-77
2022/12/10 11:03:30;;;;;;;0.50;0.20;;;3.40;1.00;;;;;;6085718;23;20439;-78
2022/12/10 11:06:00;;;;;;;0.70;0.50;;;3.50;1.00;;;;;;6085584;23;20401;-79
2022/12/10 11:08:31;;;;;;;0.50;0.10;;;3.50;1.00;;;;;;6083943;23;20469;-76
2022/12/10 11:11:02;;;;;;;1.10;0.27;;;3.50;1.00;;;;;;6085604;23;20439;-78
2022/12/10 11:13:32;;;;;;;0.50;0.20;;;3.50;1.00;;;;;;6080311;23;20464;-78
2022/12/10 11:16:10;;;;;;;0.70;0.60;;;3.50;1.00;;;;;;6075171;23;20414;-78
2022/12/10 11:18:42;;;;;;;1.90;1.70;;;3.50;1.00;;;;;;6068121;23;20403;-78
2022/12/10 11:21:18;;;;;;;0.83;0.83;;;3.50;1.00;;;;;;6066698;23;20455;-77
2022/12/10 11:23:48;;;;;;;0.50;0.10;;;3.50;1.00;;;;;;6068079;23;20388;-77
2022/12/10 11:26:45;;;;;;;0.60;0.40;;;3.60;1.00;;;;;;6067569;23;20427;-76
2022/12/10 11:29:25;;;;;;;1.57;0.40;;;3.60;1.00;;;;;;6065131;23;20786;-78
2022/12/10 11:32:07;;;;;;;0.50;0.10;;;3.70;1.00;;;;;;6066929;23;20384;-77
2022/12/10 11:34:52;;;;;;;0.50;0.17;;;3.70;1.00;;;;;;6067924;23;20392;-77
2022/12/10 11:37:29;;;;;;;0.50;0.10;;;3.70;1.00;;;;;;6067753;23;20431;-78
2022/12/10 11:40:29;;;;;;;0.50;0.10;;;3.70;1.00;;;;;;6067749;23;20398;-77
2022/12/10 11:43:06;;;;;;;1.80;1.60;;;3.80;1.00;;;;;;6069575;23;20443;-79
2022/12/10 11:45:49;;;;;;;1.00;0.47;;;3.80;1.00;;;;;;6067797;23;20398;-78
2022/12/10 11:48:29;;;;;;;0.50;0.10;;;3.80;1.00;;;;;;6068263;23;20411;-77
2022/12/10 11:51:03;;;;;;;0.50;0.10;;;3.80;1.00;;;;;;6068296;23;20412;-78
2022/12/10 11:53:56;;;;;;;0.60;0.47;;;3.90;1.00;;;;;;6068841;23;20404;-77
2022/12/10 11:56:29;;;;;;;1.17;0.90;;;4.00;1.00;;;;;;6068255;23;20603;-78
2022/12/10 11:59:11;;;;;;;0.50;0.20;;;4.00;1.00;;;;;;6070285;23;20388;-77
2022/12/10 12:01:55;;;;;;;0.50;0.10;;;4.10;1.00;;;;;;6071673;23;20923;-78
2022/12/10 12:04:30;;;;;;;0.50;0.10;;;4.10;1.00;;;;;;6071529;23;20424;-78
2022/12/10 12:07:22;;;;;;;0.50;0.20;;;4.10;1.00;;;;;;6074396;23;20427;-78
2022/12/10 12:10:03;;;;;;;1.33;0.77;;;4.10;1.00;;;;;;6060089;23;20423;-80
2022/12/10 12:12:42;;;;;;;2.90;2.20;;;4.10;1.00;;;;;;6074356;23;20407;-78
2022/12/10 12:15:20;;;;;;;0.50;0.10;;;4.10;1.00;;;;;;6071376;23;20711;-77
2022/12/10 12:17:53;;;;;;;3.00;1.10;;;4.00;1.00;;;;;;6071525;23;20431;-77
2022/12/10 12:20:26;;;;;;;0.50;0.20;;;4.00;1.00;;;;;;6070957;23;20407;-78
2022/12/10 12:22:59;;;;;;;3.60;1.83;;;4.10;1.00;;;;;;6069730;23;20443;-78
2022/12/10 12:25:29;;;;;;;0.60;0.37;;;4.10;1.00;;;;;;6070536;23;20415;-77
2022/12/10 12:28:05;;;;;;;0.50;0.20;;;4.10;1.00;;;;;;6071758;23;20499;-78
2022/12/10 12:30:35;;;;;;;54.40;12.43;;;4.10;1.00;;;;;;6070435;23;20430;-77
2022/12/10 12:33:09;;;;;;;0.50;0.10;;;4.10;1.00;;;;;;6071924;23;20736;-79
2022/12/10 12:35:41;;;;;;;1.37;0.57;;;4.10;1.00;;;;;;6071020;23;20514;-78
2022/12/10 12:38:24;;;;;;;0.50;0.10;;;4.10;1.00;;;;;;6070149;23;20411;-77
2022/12/10 12:40:56;;;;;;;0.50;0.10;;;3.90;1.00;;;;;;6071807;23;20844;-79
2022/12/10 12:43:29;;;;;;;0.50;0.10;;;3.80;1.00;;;;;;6071476;23;20502;-80
2022/12/10 12:45:57;;;;;;;0.70;0.67;;;3.80;1.00;;;;;;6072010;23;20459;-79
2022/12/10 12:48:33;;;;;;;0.90;0.90;;;3.80;1.00;;;;;;6072176;23;20478;-77
2022/12/10 12:51:06;;;;;;;0.53;0.33;;;3.70;1.00;;;;;;6071328;23;20901;-78
2022/12/10 12:53:36;;;;;;;3.87;1.50;;;3.70;1.00;;;;;;6069951;23;20459;-77
2022/12/10 12:56:09;;;;;;;0.70;0.40;;;3.70;1.00;;;;;;6069005;23;20925;-77
2022/12/10 12:58:41;;;;;;;0.50;0.10;;;3.70;1.00;;;;;;6070150;23;20425;-78
2022/12/10 13:01:32;;;;;;;0.50;0.10;;;3.70;1.00;;;;;;6073095;23;20388;-79
2022/12/10 13:04:00;;;;;;;0.50;0.10;;;3.70;1.00;;;;;;6069049;23;20526;-77
2022/12/10 13:06:30;;;;;;;1.33;1.23;;;3.70;1.00;;;;;;6071707;23;20446;-77
2022/12/10 13:09:24;;;;;;;1.27;0.83;;;3.70;1.00;;;;;;6073353;23;20599;-77
2022/12/10 13:12:21;;;;;;;0.70;0.50;;;3.70;1.00;;;;;;6070822;23;20408;-78
2022/12/10 13:15:14;;;;;;;0.50;0.10;;;3.60;1.00;;;;;;6070085;23;20666;-78
2022/12/10 13:18:02;;;;;;;0.80;0.30;;;3.60;1.00;;;;;;6071051;23;20438;-76
2022/12/10 13:20:34;;;;;;;0.50;0.10;;;3.60;1.00;;;;;;6070551;23;20467;-77
2022/12/10 13:23:03;;;;;;;0.60;0.40;;;3.60;1.00;;;;;;6070504;23;20451;-78
2022/12/10 13:25:57;;;;;;;0.87;0.83;;;3.60;1.00;;;;;;6074867;23;20459;-77
2022/12/10 13:28:32;;;;;;;0.50;0.10;;;3.60;1.00;;;;;;6073960;23;20736;-77
2022/12/10 13:31:19;;;;;;;0.50;0.20;;;3.60;1.00;;;;;;6071665;23;20388;-78
2022/12/10 13:33:51;;;;;;;0.50;0.10;;;3.60;1.00;;;;;;6071074;23;20407;-78
2022/12/10 13:36:25;;;;;;;0.50;0.20;;;3.60;1.00;;;;;;6070552;23;20424;-78
2022/12/10 13:39:12;;;;;;;0.50;0.10;;;3.60;1.00;;;;;;6071334;23;20387;-78
2022/12/10 13:44:51;;;;;;;0.50;0.10;;;3.70;1.00;;;;;;6069099;23;20444;-76
2022/12/10 13:47:32;;;;;;;0.70;0.47;;;3.80;1.00;;;;;;6069841;23;20416;-77
2022/12/10 13:50:01;;;;;;;1.57;0.67;;;3.80;1.00;;;;;;6070984;23;20407;-77
2022/12/10 13:52:36;;;;;;;0.50;0.20;;;3.80;1.00;;;;;;6069740;23;20984;-77
2022/12/10 13:55:24;;;;;;;0.50;0.10;;;3.80;1.00;;;;;;6068545;23;20402;-77
2022/12/10 13:58:16;;;;;;;0.70;0.40;;;3.80;1.00;;;;;;6068449;23;20423;-77
2022/12/10 14:00:52;;;;;;;0.50;0.10;;;3.90;1.00;;;;;;6068580;23;20385;-78
2022/12/10 14:03:41;;;;;;;1.07;1.03;;;3.80;1.00;;;;;;6068684;23;20446;-77
2022/12/10 14:06:17;;;;;;;2.90;0.60;;;3.90;1.00;;;;;;6070708;23;20916;-77
2022/12/10 14:08:56;;;;;;;1.27;0.67;;;3.70;1.00;;;;;;6068263;23;20419;-77
2022/12/10 14:11:28;;;;;;;0.50;0.10;;;3.50;1.00;;;;;;6068800;23;20448;-77
2022/12/10 14:14:10;;;;;;;0.50;0.10;;;3.60;1.00;;;;;;6067833;23;20436;-77
2022/12/10 14:16:40;;;;;;;0.50;0.20;;;3.50;1.00;;;;;;6068649;23;20435;-78
2022/12/10 14:19:13;;;;;;;0.50;0.10;;;3.40;1.00;;;;;;6067914;23;20470;-78
2022/12/10 14:21:46;;;;;;;10.13;2.53;;;3.50;1.00;;;;;;6067772;23;20450;-77
2022/12/10 14:24:28;;;;;;;3.97;3.67;;;3.40;1.00;;;;;;6069114;23;20498;-78
2022/12/10 14:27:02;;;;;;;0.90;0.50;;;3.40;1.00;;;;;;6072332;23;20431;-77
2022/12/10 14:29:31;;;;;;;0.60;0.40;;;3.40;1.00;;;;;;6068200;23;20407;-78
2022/12/10 14:31:59;;;;;;;0.50;0.10;;;3.40;1.00;;;;;;6067852;23;21028;-77
2022/12/10 14:34:29;;;;;;;0.80;0.53;;;3.30;1.00;;;;;;6067925;23;20550;-78
2022/12/10 14:36:58;;;;;;;1.27;0.67;;;3.20;1.00;;;;;;6067663;23;20446;-77
2022/12/10 14:39:28;;;;;;;0.80;0.60;;;3.20;1.00;;;;;;6067925;23;20463;-77
2022/12/10 14:41:59;;;;;;;0.90;0.57;;;3.10;1.00;;;;;;6067944;23;20768;-77
2022/12/10 14:44:29;;;;;;;0.60;0.30;;;3.10;1.00;;;;;;6069552;23;20802;-78
2022/12/10 14:47:07;;;;;;;0.50;0.20;;;3.00;1.00;;;;;;6069179;23;20431;-77
2022/12/10 14:49:41;;;;;;;4.20;1.90;;;3.00;1.00;;;;;;6070821;23;20416;-77
2022/12/10 14:52:13;;;;;;;2.10;1.17;;;3.00;1.00;;;;;;6070078;23;20388;-77
2022/12/10 14:54:41;;;;;;;0.50;0.10;;;3.00;1.00;;;;;;6070705;23;20408;-77
2022/12/10 14:57:16;;;;;;;3.43;2.93;;;3.00;1.00;;;;;;6069444;23;20435;-77
2022/12/10 14:59:47;;;;;;;0.50;0.10;;;2.90;1.00;;;;;;6078441;23;20417;-77
2022/12/10 15:02:22;;;;;;;0.73;0.73;;;2.80;1.00;;;;;;6072833;23;20416;-77
2022/12/10 15:04:52;;;;;;;0.50;0.10;;;2.90;1.00;;;;;;6068288;23;20904;-79
2022/12/10 15:07:22;;;;;;;0.60;0.40;;;2.90;1.00;;;;;;6069671;23;20797;-77
2022/12/10 15:09:53;;;;;;;0.50;0.20;;;2.90;1.00;;;;;;6068582;23;20451;-77
2022/12/10 15:12:29;;;;;;;0.50;0.10;;;2.80;1.00;;;;;;6068576;23;20463;-78
2022/12/10 15:15:00;;;;;;;0.60;0.57;;;2.70;1.00;;;;;;6067848;23;20475;-77
2022/12/10 15:17:37;;;;;;;0.50;0.20;;;2.80;1.00;;;;;;6068261;23;20439;-78
2022/12/10 15:20:18;;;;;;;2.43;2.23;;;2.80;1.00;;;;;;6069751;23;20380;-77
2022/12/10 15:22:46;;;;;;;0.50;0.10;;;2.80;1.00;;;;;;6068156;23;20888;-78
2022/12/10 15:25:22;;;;;;;1.47;0.60;;;2.80;1.00;;;;;;6070051;23;20450;-77
2022/12/10 15:28:01;;;;;;;1.27;0.50;;;2.90;1.00;;;;;;6070496;23;21293;-78
2022/12/10 15:30:38;;;;;;;1.93;1.57;;;2.70;1.00;;;;;;6070618;23;20447;-78
2022/12/10 15:33:22;;;;;;;0.50;0.10;;;;;;;;;;6066995;23;20415;-77
2022/12/10 15:35:50;;;;;;;0.50;0.10;;;2.70;1.00;;;;;;6067421;23;20769;-78
2022/12/10 15:38:18;;;;;;;0.50;0.10;;;2.60;1.00;;;;;;6067069;23;21015;-78
2022/12/10 15:40:46;;;;;;;0.50;0.20;;;2.70;1.00;;;;;;6067473;23;20420;-78
2022/12/10 15:43:25;;;;;;;0.50;0.10;;;2.70;1.00;;;;;;6067063;23;20407;-77
2022/12/10 15:45:53;;;;;;;0.50;0.20;;;2.70;1.00;;;;;;6067969;23;20430;-77
2022/12/10 15:48:23;;;;;;;1.90;1.80;;;2.70;1.00;;;;;;6069001;23;20515;-77
2022/12/10 15:50:51;;;;;;;0.50;0.10;;;2.60;1.00;;;;;;6068870;23;20909;-77
2022/12/10 15:53:27;;;;;;;0.50;0.10;;;2.50;1.00;;;;;;6067355;23;20468;-77
2022/12/10 15:56:02;;;;;;;5.23;2.97;;;2.50;1.00;;;;;;6068155;23;20428;-77
2022/12/10 15:58:30;;;;;;;0.50;0.10;;;2.50;1.00;;;;;;6068890;23;20486;-78
2022/12/10 16:00:58;;;;;;;0.50;0.10;;;2.50;1.00;;;;;;6068275;23;20403;-78
2022/12/10 16:03:29;;;;;;;0.50;0.10;;;2.50;1.00;;;;;;6067858;23;20418;-77
2022/12/10 16:05:58;;;;;;;0.50;0.10;;;2.50;1.00;;;;;;6070042;23;20419;-77
2022/12/10 16:08:27;;;;;;;0.50;0.10;;;2.40;1.00;;;;;;6068455;23;20407;-78
2022/12/10 16:10:58;;;;;;;0.90;0.73;;;2.40;1.00;;;;;;6069602;23;20447;-77
2022/12/10 16:13:29;;;;;;;0.50;0.30;;;2.40;1.00;;;;;;6070777;23;20408;-77
2022/12/10 16:15:59;;;;;;;1.53;1.43;;;2.30;1.00;;;;;;6070778;23;20904;-78
2022/12/10 16:18:28;;;;;;;41.23;14.60;;;2.30;1.00;;;;;;6069548;23;20752;-78
2022/12/10 16:21:01;;;;;;;0.50;0.10;;;2.30;1.00;;;;;;6069151;23;20388;-77
2022/12/10 16:23:29;;;;;;;0.50;0.17;;;2.30;1.00;;;;;;6072867;23;20419;-78
2022/12/10 16:25:57;;;;;;;0.50;0.10;;;2.30;1.00;;;;;;6068795;23;20835;-77
2022/12/10 16:28:26;;;;;;;0.50;0.10;;;2.30;1.00;;;;;;6067855;23;20403;-78
2022/12/10 16:30:55;;;;;;;0.50;0.10;;;2.30;1.00;;;;;;6069047;23;20439;-78
2022/12/10 16:33:25;;;;;;;0.50;0.10;;;2.20;1.00;;;;;;6069542;23;20408;-78
2022/12/10 16:35:56;;;;;;;0.50;0.20;;;2.20;1.00;;;;;;6073512;23;20463;-78
2022/12/10 16:38:26;;;;;;;0.50;0.10;;;2.20;1.00;;;;;;6077026;23;20900;-79
2022/12/10 16:40:54;;;;;;;0.50;0.10;;;2.20;1.00;;;;;;6072492;23;20446;-77
2022/12/10 16:43:24;;;;;;;0.50;0.10;;;2.00;1.00;;;;;;6074725;23;20475;-77
2022/12/10 16:45:55;;;;;;;1.60;1.50;;;1.90;1.00;;;;;;6072235;23;20435;-78
2022/12/10 16:48:23;;;;;;;0.50;0.20;;;1.90;1.00;;;;;;6071891;23;20502;-78
2022/12/10 16:50:52;;;;;;;0.50;0.10;;;1.90;1.00;;;;;;6073672;23;20873;-76
2022/12/10 16:53:25;;;;;;;0.50;0.10;;;1.90;1.00;;;;;;6073517;23;20408;-78
2022/12/10 16:55:54;;;;;;;0.50;0.10;;;1.90;1.00;;;;;;6071338;23;20414;-78
2022/12/10 16:58:23;;;;;;;0.50;0.20;;;1.90;1.00;;;;;;6070424;23;20410;-77
2022/12/10 17:00:52;;;;;;;0.50;0.10;;;1.90;1.00;;;;;;6069471;23;20407;-78
2022/12/10 17:03:22;;;;;;;0.77;0.77;;;1.80;1.00;;;;;;6068991;23;20550;-77
2022/12/10 17:05:53;;;;;;;0.50;0.10;;;1.70;1.00;;;;;;6069969;23;20457;-78
2022/12/10 17:08:24;;;;;;;0.50;0.10;;;1.70;1.00;;;;;;6072829;23;20426;-78
2022/12/10 17:13:43;;;;;;;0.60;0.40;;;1.80;1.00;;;;;;6069070;23;20662;-77
2022/12/10 17:18:46;;;;;;;0.50;0.20;;;;;;;;;;6022599;23;20432;-78
2022/12/10 17:21:14;;;;;;;0.50;0.10;;;1.80;1.00;;;;;;6022783;23;20476;-76
2022/12/10 17:23:43;;;;;;;0.50;0.10;;;1.80;1.00;;;;;;6025080;23;20406;-77
2022/12/10 17:26:21;;;;;;;0.50;0.10;;;1.80;1.00;;;;;;6021155;23;20504;-78
2022/12/10 17:28:49;;;;;;;0.50;0.10;;;1.80;1.00;;;;;;5993072;24;20429;-77
2022/12/10 17:31:17;;;;;;;0.50;0.10;;;1.80;1.00;;;;;;5994038;24;20434;-77
2022/12/10 17:33:46;;;;;;;0.50;0.10;;;1.80;1.00;;;;;;5993476;24;21004;-77
2022/12/10 17:36:18;;;;;;;0.50;0.10;;;1.80;1.00;;;;;;5992459;23;20423;-77
2022/12/10 17:38:48;;;;;;;0.50;0.10;;;1.80;1.00;;;;;;5991283;24;20410;-78
2022/12/10 17:41:16;;;;;;;0.50;0.10;;;1.80;1.00;;;;;;5989686;24;20438;-77
2022/12/10 17:43:44;;;;;;;0.50;0.10;;;1.70;1.00;;;;;;5989393;24;20434;-78
2022/12/10 17:46:13;;;;;;;0.50;0.10;;;1.70;1.00;;;;;;5988886;23;20482;-78
2022/12/10 17:48:41;;;;;;;0.50;0.10;;;1.80;1.00;;;;;;5990910;24;20742;-77